Time;durP1;ratioP1;P1;durP2;ratioP2;P2;SDS_P1;SDS_P2;PMS_P1;PMS_P2;Temp;Humidity;BMP_temperature;BMP_pressure;BME280_temperature;BME280_humidity;BME280_pressure;Samples;Min_cycle;Max_cycle;Signal;HPM_P1;HPM_P2
2023/09/09 00:02:24;;;;;;;16.38;8.68;;;;;;;;;;5001134;28;20023;-64
2023/09/09 00:04:52;;;;;;;13.07;9.15;;;;;;;;;;5001791;28;20113;-64
2023/09/09 00:07:18;;;;;;;13.25;8.32;;;;;;;;;;5016648;28;20419;-65
2023/09/09 00:09:43;;;;;;;14.95;9.80;;;;;;;;;;5016726;28;20032;-64
2023/09/09 00:12:09;;;;;;;14.55;9.13;;;;;;;;;;4998459;28;20022;-66
2023/09/09 00:14:34;;;;;;;12.13;8.43;;;;;;;;;;4996860;28;20109;-66
2023/09/09 00:17:00;;;;;;;16.27;8.52;;;;;;;;;;4997241;28;20191;-65
2023/09/09 00:19:25;;;;;;;12.05;8.48;;;;;;;;;;5012048;28;20097;-64
2023/09/09 00:21:51;;;;;;;14.63;9.00;;;;;;;;;;4992114;28;20120;-66
2023/09/09 00:24:16;;;;;;;12.55;8.60;;;;;;;;;;5005150;28;20452;-63
2023/09/09 00:26:41;;;;;;;14.68;8.32;;;;;;;;;;5010755;28;20549;-66
2023/09/09 00:29:07;;;;;;;18.98;8.40;;;;;;;;;;4998345;28;20443;-66
2023/09/09 00:31:32;;;;;;;15.65;9.38;;;;;;;;;;4996656;28;20023;-66
2023/09/09 00:33:58;;;;;;;13.32;8.68;;;;;;;;;;4997002;28;20034;-66
2023/09/09 00:36:23;;;;;;;14.82;8.82;;;;;;;;;;5007599;28;20049;-65
2023/09/09 00:38:49;;;;;;;14.98;8.75;;;;;;;;;;5009957;28;20022;-65
2023/09/09 00:41:17;;;;;;;14.77;9.23;;;;;;;;;;4999361;28;20113;-66
2023/09/09 00:43:43;;;;;;;14.07;9.48;;;;;;;;;;5011045;28;20031;-66
2023/09/09 00:46:10;;;;;;;15.02;9.80;;;;;;;;;;4996400;28;20027;-66
2023/09/09 00:48:36;;;;;;;13.63;9.30;;;;;;;;;;4998644;28;20496;-66
2023/09/09 00:51:02;;;;;;;17.25;9.15;;;;;;;;;;5015793;28;20100;-65
2023/09/09 00:53:29;;;;;;;14.32;9.25;;;;;;;;;;5007672;28;20117;-66
2023/09/09 00:55:55;;;;;;;15.38;9.48;;;;;;;;;;5014827;23;20033;-66
2023/09/09 00:58:22;;;;;;;16.40;8.35;;;;;;;;;;5010357;28;20037;-66
2023/09/09 01:00:47;;;;;;;17.55;9.75;;;;;;;;;;4996257;28;20472;-66
2023/09/09 01:03:13;;;;;;;13.43;8.68;;;;;;;;;;4996089;28;20033;-66
2023/09/09 01:05:38;;;;;;;13.90;8.57;;;;;;;;;;4997936;28;20030;-66
2023/09/09 01:08:05;;;;;;;12.98;9.00;;;;;;;;;;5015600;28;20033;-66
2023/09/09 01:10:30;;;;;;;14.93;8.77;;;;;;;;;;5015456;28;20111;-66
2023/09/09 01:12:56;;;;;;;15.07;9.02;;;;;;;;;;5015482;28;20479;-66
2023/09/09 01:15:21;;;;;;;13.10;8.52;;;;;;;;;;4998880;28;20026;-66
2023/09/09 01:17:48;;;;;;;13.18;9.50;;;;;;;;;;5009232;28;20022;-66
2023/09/09 01:20:17;;;;;;;15.95;8.73;;;;;;;;;;4990340;28;20101;-66
2023/09/09 01:22:46;;;;;;;15.40;9.38;;;;;;;;;;4976093;28;20110;-66
2023/09/09 01:25:12;;;;;;;13.50;9.30;;;;;;;;;;4995606;28;20034;-66
2023/09/09 01:27:38;;;;;;;16.33;9.95;;;;;;;;;;4995607;28;20041;-66
2023/09/09 01:30:04;;;;;;;17.60;11.32;;;;;;;;;;4997635;28;20026;-66
2023/09/09 01:32:30;;;;;;;15.95;10.13;;;;;;;;;;5015125;28;20030;-66
2023/09/09 01:34:55;;;;;;;15.98;9.85;;;;;;;;;;5015099;28;20041;-66
2023/09/09 01:37:21;;;;;;;16.73;10.20;;;;;;;;;;4998692;28;20034;-66
2023/09/09 01:39:48;;;;;;;14.23;8.95;;;;;;;;;;4995672;28;20066;-64
2023/09/09 01:42:14;;;;;;;13.10;9.73;;;;;;;;;;5001950;28;20033;-64
2023/09/09 01:44:40;;;;;;;14.82;9.88;;;;;;;;;;5014925;28;20427;-66
2023/09/09 01:47:05;;;;;;;15.77;10.50;;;;;;;;;;5014815;28;20091;-65
2023/09/09 01:49:31;;;;;;;16.35;10.40;;;;;;;;;;5008379;28;20026;-66
2023/09/09 01:51:56;;;;;;;14.52;10.20;;;;;;;;;;5004330;28;20364;-66
2023/09/09 01:54:21;;;;;;;15.50;10.77;;;;;;;;;;5001545;28;20041;-66
2023/09/09 01:56:47;;;;;;;14.68;10.13;;;;;;;;;;5005289;28;20034;-65
2023/09/09 01:59:13;;;;;;;21.05;10.30;;;;;;;;;;4995082;28;20141;-66
2023/09/09 02:01:38;;;;;;;15.50;9.90;;;;;;;;;;4995085;28;20022;-66
2023/09/09 02:04:04;;;;;;;13.73;9.90;;;;;;;;;;4995066;28;20070;-62
2023/09/09 02:06:29;;;;;;;15.05;10.75;;;;;;;;;;4994702;28;20107;-65
2023/09/09 02:08:55;;;;;;;14.07;10.52;;;;;;;;;;5000401;28;20113;-66
2023/09/09 02:11:20;;;;;;;15.38;10.25;;;;;;;;;;5014585;28;20033;-65
2023/09/09 02:13:45;;;;;;;18.33;10.35;;;;;;;;;;5013367;28;20095;-65
2023/09/09 02:16:11;;;;;;;14.02;9.43;;;;;;;;;;5014301;28;20026;-66
2023/09/09 02:18:40;;;;;;;15.30;10.07;;;;;;;;;;5014385;28;20375;-65
2023/09/09 02:21:07;;;;;;;15.93;10.98;;;;;;;;;;5000347;28;20444;-66
2023/09/09 02:23:33;;;;;;;13.82;10.27;;;;;;;;;;5002913;28;20030;-66
2023/09/09 02:25:58;;;;;;;16.48;10.07;;;;;;;;;;5014211;28;20029;-65
2023/09/09 02:28:24;;;;;;;13.43;9.43;;;;;;;;;;5014295;28;20030;-65
2023/09/09 02:30:50;;;;;;;12.30;9.43;;;;;;;;;;5014089;28;20041;-65
2023/09/09 02:33:15;;;;;;;15.27;10.40;;;;;;;;;;5014143;28;20037;-66
2023/09/09 02:35:44;;;;;;;16.33;10.52;;;;;;;;;;5010972;28;20102;-65
2023/09/09 02:38:10;;;;;;;22.10;10.23;;;;;;;;;;4994321;28;20061;-65
2023/09/09 02:40:36;;;;;;;12.90;10.15;;;;;;;;;;4994388;28;20441;-65
2023/09/09 02:43:01;;;;;;;20.05;10.35;;;;;;;;;;5001516;28;20029;-63
2023/09/09 02:45:27;;;;;;;19.83;11.00;;;;;;;;;;5013787;28;20038;-64
2023/09/09 02:47:52;;;;;;;21.88;10.88;;;;;;;;;;5012543;28;20053;-63
2023/09/09 02:50:18;;;;;;;14.07;9.68;;;;;;;;;;5013486;28;20026;-65
2023/09/09 02:52:43;;;;;;;13.98;9.27;;;;;;;;;;5013576;28;20054;-65
2023/09/09 02:55:09;;;;;;;16.65;9.57;;;;;;;;;;5013610;28;20476;-63
2023/09/09 02:57:34;;;;;;;16.95;11.30;;;;;;;;;;5003953;28;20488;-65
2023/09/09 03:00:00;;;;;;;22.23;11.73;;;;;;;;;;4994004;28;20070;-63
2023/09/09 03:02:25;;;;;;;15.82;11.00;;;;;;;;;;5013232;28;20113;-64
2023/09/09 03:04:51;;;;;;;16.48;11.38;;;;;;;;;;5013210;28;20394;-65
2023/09/09 03:07:16;;;;;;;17.60;10.88;;;;;;;;;;5013504;28;20032;-63
2023/09/09 03:09:42;;;;;;;15.55;10.27;;;;;;;;;;5013494;28;20026;-65
2023/09/09 03:12:07;;;;;;;15.00;10.18;;;;;;;;;;5013416;28;20360;-66
2023/09/09 03:14:33;;;;;;;13.65;10.38;;;;;;;;;;5013150;28;20380;-62
2023/09/09 03:16:59;;;;;;;13.70;10.50;;;;;;;;;;5005434;28;20109;-65
2023/09/09 03:19:24;;;;;;;15.57;10.65;;;;;;;;;;4993239;28;20494;-64
2023/09/09 03:21:50;;;;;;;18.45;12.07;;;;;;;;;;4993487;28;20603;-65
2023/09/09 03:24:15;;;;;;;15.32;11.68;;;;;;;;;;4993325;28;20026;-66
2023/09/09 03:26:41;;;;;;;20.83;13.43;;;;;;;;;;4993471;28;20018;-65
2023/09/09 03:29:06;;;;;;;17.88;12.05;;;;;;;;;;4993572;28;20027;-63
2023/09/09 03:31:33;;;;;;;16.83;11.02;;;;;;;;;;4993419;28;20030;-65
2023/09/09 03:33:59;;;;;;;15.63;10.75;;;;;;;;;;4995043;28;20061;-65
2023/09/09 03:36:24;;;;;;;15.10;11.00;;;;;;;;;;5004190;28;20056;-63
2023/09/09 03:38:50;;;;;;;16.30;11.38;;;;;;;;;;4993358;28;20030;-62
2023/09/09 03:41:15;;;;;;;17.73;10.65;;;;;;;;;;4993323;28;20038;-63
2023/09/09 03:43:41;;;;;;;15.73;10.88;;;;;;;;;;4993383;28;20173;-65
2023/09/09 03:46:07;;;;;;;15.25;11.05;;;;;;;;;;4993372;28;20361;-64
2023/09/09 03:48:32;;;;;;;15.13;10.95;;;;;;;;;;4993345;28;20026;-64
2023/09/09 03:51:02;;;;;;;18.20;10.30;;;;;;;;;;4993357;28;20375;-64
2023/09/09 03:53:27;;;;;;;15.10;10.30;;;;;;;;;;4993369;28;20034;-65
2023/09/09 03:55:54;;;;;;;13.57;10.57;;;;;;;;;;4993076;28;20460;-63
2023/09/09 03:58:20;;;;;;;13.57;10.70;;;;;;;;;;4993361;28;20046;-62
2023/09/09 04:00:49;;;;;;;14.63;10.80;;;;;;;;;;4992990;28;20026;-65
2023/09/09 04:03:15;;;;;;;16.48;10.10;;;;;;;;;;4992892;28;20077;-65
2023/09/09 04:05:41;;;;;;;14.68;10.15;;;;;;;;;;4993028;28;20034;-63
2023/09/09 04:08:12;;;;;;;12.70;9.70;;;;;;;;;;4993140;28;20034;-66
2023/09/09 04:10:37;;;;;;;15.48;10.23;;;;;;;;;;4993101;28;20037;-64
2023/09/09 04:13:03;;;;;;;18.25;9.70;;;;;;;;;;4993158;28;20464;-65
2023/09/09 04:15:29;;;;;;;11.93;9.18;;;;;;;;;;5004681;28;20033;-65
2023/09/09 04:17:54;;;;;;;18.83;11.00;;;;;;;;;;5012496;28;20022;-66
2023/09/09 04:20:19;;;;;;;14.85;9.77;;;;;;;;;;5005188;28;20027;-63
2023/09/09 04:22:45;;;;;;;14.20;9.27;;;;;;;;;;4992763;28;20030;-66
2023/09/09 04:25:10;;;;;;;16.25;9.88;;;;;;;;;;4993119;28;20034;-65
2023/09/09 04:27:36;;;;;;;14.10;9.75;;;;;;;;;;4992732;28;20026;-64
2023/09/09 04:30:01;;;;;;;14.57;9.77;;;;;;;;;;4992908;28;20501;-65
2023/09/09 04:32:31;;;;;;;14.65;9.70;;;;;;;;;;5004276;28;20038;-63
2023/09/09 04:34:57;;;;;;;13.47;9.73;;;;;;;;;;5012444;28;20422;-66
2023/09/09 04:37:24;;;;;;;15.13;9.98;;;;;;;;;;4999088;28;20026;-65
2023/09/09 04:39:50;;;;;;;15.13;10.40;;;;;;;;;;4996430;28;20041;-64
2023/09/09 04:42:16;;;;;;;17.88;10.77;;;;;;;;;;4996314;28;20023;-63
2023/09/09 04:44:42;;;;;;;15.85;10.60;;;;;;;;;;4996387;28;20038;-65
2023/09/09 04:47:07;;;;;;;18.90;10.70;;;;;;;;;;4996121;28;20030;-66
2023/09/09 04:49:33;;;;;;;19.90;10.65;;;;;;;;;;5008547;28;20084;-65
2023/09/09 04:51:58;;;;;;;15.07;9.48;;;;;;;;;;5015788;28;20021;-64
2023/09/09 04:54:24;;;;;;;20.70;9.88;;;;;;;;;;5015680;28;20026;-64
2023/09/09 04:56:49;;;;;;;17.08;10.30;;;;;;;;;;5015534;28;20081;-65
2023/09/09 04:59:15;;;;;;;17.88;9.50;;;;;;;;;;5000044;28;20084;-65
2023/09/09 05:01:40;;;;;;;15.15;9.77;;;;;;;;;;4996006;28;20498;-66
2023/09/09 05:04:06;;;;;;;18.60;9.25;;;;;;;;;;4996013;28;20034;-66
2023/09/09 05:06:31;;;;;;;20.65;11.85;;;;;;;;;;5014411;28;20096;-65
2023/09/09 05:08:57;;;;;;;16.35;11.57;;;;;;;;;;5015618;28;20026;-66
2023/09/09 05:11:22;;;;;;;19.42;12.70;;;;;;;;;;5015557;28;20026;-67
2023/09/09 05:13:48;;;;;;;20.80;10.93;;;;;;;;;;5015388;28;20033;-65
2023/09/09 05:16:13;;;;;;;17.88;9.50;;;;;;;;;;5014831;28;20022;-66
2023/09/09 05:18:39;;;;;;;16.77;9.60;;;;;;;;;;5015509;28;20438;-66
2023/09/09 05:21:04;;;;;;;14.32;9.50;;;;;;;;;;5002036;28;20391;-66
2023/09/09 05:23:30;;;;;;;13.82;8.65;;;;;;;;;;4997108;28;20041;-66
2023/09/09 05:25:55;;;;;;;19.38;9.20;;;;;;;;;;4995888;28;20031;-66
2023/09/09 05:28:21;;;;;;;12.88;9.48;;;;;;;;;;4995638;28;20153;-66
2023/09/09 05:30:46;;;;;;;17.75;9.70;;;;;;;;;;4995501;28;20022;-66
2023/09/09 05:33:11;;;;;;;16.38;10.82;;;;;;;;;;4995505;28;20531;-66
2023/09/09 05:35:37;;;;;;;22.17;13.43;;;;;;;;;;5012656;28;20025;-65
2023/09/09 05:38:03;;;;;;;20.23;11.68;;;;;;;;;;5009612;28;20025;-66
2023/09/09 05:40:28;;;;;;;14.98;11.15;;;;;;;;;;5003978;28;20045;-66
2023/09/09 05:42:53;;;;;;;16.55;11.52;;;;;;;;;;5002579;28;20113;-66
2023/09/09 05:45:19;;;;;;;14.18;10.18;;;;;;;;;;5010533;28;20033;-66
2023/09/09 05:47:45;;;;;;;15.75;10.88;;;;;;;;;;4998218;28;20444;-66
2023/09/09 05:50:11;;;;;;;20.35;10.95;;;;;;;;;;5008318;28;20030;-66
2023/09/09 05:52:37;;;;;;;15.70;11.43;;;;;;;;;;5004790;28;20087;-66
2023/09/09 05:55:03;;;;;;;14.52;11.18;;;;;;;;;;5001054;28;20483;-65
2023/09/09 05:57:28;;;;;;;21.83;14.65;;;;;;;;;;5010571;28;20049;-65
2023/09/09 05:59:54;;;;;;;22.25;14.73;;;;;;;;;;4998626;28;20123;-65
2023/09/09 06:02:19;;;;;;;19.27;13.27;;;;;;;;;;5006828;28;20026;-66
2023/09/09 06:04:45;;;;;;;17.92;12.55;;;;;;;;;;5005614;28;20104;-66
2023/09/09 06:07:11;;;;;;;17.20;12.98;;;;;;;;;;4999762;28;20026;-66
2023/09/09 06:09:36;;;;;;;21.13;11.27;;;;;;;;;;5010797;28;20056;-66
2023/09/09 06:12:03;;;;;;;23.73;10.75;;;;;;;;;;4999804;28;20029;-66
2023/09/09 06:14:28;;;;;;;17.77;11.52;;;;;;;;;;4987837;28;20066;-66
2023/09/09 06:16:54;;;;;;;14.25;11.15;;;;;;;;;;5006712;28;20022;-66
2023/09/09 06:19:19;;;;;;;19.08;11.52;;;;;;;;;;4998314;28;20037;-65
2023/09/09 06:21:45;;;;;;;14.15;10.75;;;;;;;;;;4997425;28;20033;-66
2023/09/09 06:24:12;;;;;;;15.90;10.32;;;;;;;;;;5001965;28;20026;-66
2023/09/09 06:26:38;;;;;;;14.88;9.90;;;;;;;;;;5003910;28;20424;-66
2023/09/09 06:29:03;;;;;;;16.48;9.45;;;;;;;;;;5007526;28;20068;-66
2023/09/09 06:31:29;;;;;;;17.13;9.38;;;;;;;;;;4997398;28;20026;-65
2023/09/09 06:33:54;;;;;;;16.67;8.80;;;;;;;;;;5010838;28;20031;-62
2023/09/09 06:36:21;;;;;;;19.30;8.80;;;;;;;;;;5013598;28;20057;-65
2023/09/09 06:38:47;;;;;;;17.15;8.63;;;;;;;;;;5002290;28;20061;-63
2023/09/09 06:41:13;;;;;;;12.60;8.13;;;;;;;;;;4996325;28;20026;-62
2023/09/09 06:43:39;;;;;;;13.95;8.13;;;;;;;;;;4987095;28;20038;-67
2023/09/09 06:46:04;;;;;;;11.18;7.75;;;;;;;;;;4987650;28;20029;-66
2023/09/09 06:48:30;;;;;;;14.35;8.45;;;;;;;;;;4986291;28;20023;-67
2023/09/09 06:50:56;;;;;;;12.43;7.78;;;;;;;;;;4987318;28;20109;-67
2023/09/09 06:53:24;;;;;;;11.77;7.65;;;;;;;;;;4987816;28;20027;-64
2023/09/09 06:55:51;;;;;;;17.48;7.45;;;;;;;;;;4988821;28;20023;-65
2023/09/09 06:58:16;;;;;;;11.25;7.18;;;;;;;;;;4988164;28;20484;-68
2023/09/09 07:00:48;;;;;;;10.57;7.28;;;;;;;;;;5003139;28;20032;-67
2023/09/09 07:03:13;;;;;;;11.57;7.47;;;;;;;;;;4999555;28;20150;-66
2023/09/09 07:05:39;;;;;;;11.05;6.80;;;;;;;;;;5009643;28;20065;-63
2023/09/09 07:08:05;;;;;;;14.32;6.97;;;;;;;;;;4998085;28;20061;-65
2023/09/09 07:10:30;;;;;;;12.93;6.75;;;;;;;;;;5005313;28;20018;-67
2023/09/09 07:12:56;;;;;;;8.77;6.10;;;;;;;;;;5004712;28;20117;-66
2023/09/09 07:15:21;;;;;;;10.05;6.93;;;;;;;;;;4998105;28;20034;-64
2023/09/09 07:17:47;;;;;;;11.07;6.78;;;;;;;;;;5009758;28;20479;-67
2023/09/09 07:20:12;;;;;;;12.18;6.78;;;;;;;;;;4993220;28;20080;-67
2023/09/09 07:22:38;;;;;;;12.27;6.70;;;;;;;;;;5002443;28;20021;-67
2023/09/09 07:25:05;;;;;;;10.45;6.60;;;;;;;;;;5010939;28;20044;-66
2023/09/09 07:27:30;;;;;;;9.18;6.45;;;;;;;;;;4996560;28;20033;-67
2023/09/09 07:29:56;;;;;;;12.07;6.40;;;;;;;;;;4995286;28;20121;-68
2023/09/09 07:32:21;;;;;;;12.43;6.72;;;;;;;;;;4992637;28;20027;-68
2023/09/09 07:34:47;;;;;;;13.45;6.43;;;;;;;;;;5001467;28;20033;-68
2023/09/09 07:37:12;;;;;;;14.90;6.65;;;;;;;;;;4997787;28;20035;-63
2023/09/09 07:39:46;;;;;;;12.90;7.00;;;;;;;;;;4991998;28;20402;-63
2023/09/09 07:42:14;;;;;;;11.07;6.60;;;;;;;;;;4992293;28;20419;-62
2023/09/09 07:44:40;;;;;;;10.90;6.82;;;;;;;;;;4993034;28;20030;-63
2023/09/09 07:47:07;;;;;;;13.18;6.18;;;;;;;;;;4991413;28;20077;-62
2023/09/09 07:49:35;;;;;;;10.52;5.93;;;;;;;;;;4991380;28;20105;-64
2023/09/09 07:52:05;;;;;;;10.60;6.03;;;;;;;;;;4991516;28;20035;-63
2023/09/09 07:54:31;;;;;;;12.02;7.05;;;;;;;;;;4991146;28;20173;-63
2023/09/09 07:56:58;;;;;;;12.32;6.32;;;;;;;;;;4990933;28;20050;-63
2023/09/09 07:59:24;;;;;;;11.75;6.22;;;;;;;;;;4989860;28;20018;-62
2023/09/09 08:01:50;;;;;;;14.60;6.35;;;;;;;;;;4993052;28;20081;-65
2023/09/09 08:04:15;;;;;;;12.40;6.22;;;;;;;;;;4993166;28;20035;-64
2023/09/09 08:06:41;;;;;;;10.25;6.70;;;;;;;;;;4993438;28;20029;-66
2023/09/09 08:09:07;;;;;;;12.95;6.50;;;;;;;;;;4993144;28;20042;-63
2023/09/09 08:11:32;;;;;;;10.50;6.60;;;;;;;;;;4995189;28;20027;-62
2023/09/09 08:13:57;;;;;;;9.20;6.22;;;;;;;;;;4997060;28;20134;-63
2023/09/09 08:16:23;;;;;;;9.32;6.15;;;;;;;;;;4996993;28;20113;-62
2023/09/09 08:18:49;;;;;;;14.25;5.97;;;;;;;;;;4996891;28;20033;-63
2023/09/09 08:21:14;;;;;;;14.35;5.88;;;;;;;;;;4996636;28;20038;-63
2023/09/09 08:23:40;;;;;;;10.73;6.15;;;;;;;;;;4996529;28;20088;-63
2023/09/09 08:26:05;;;;;;;13.75;7.00;;;;;;;;;;4996756;28;20026;-64
2023/09/09 08:28:31;;;;;;;12.77;6.03;;;;;;;;;;4996898;28;20022;-63
2023/09/09 08:30:58;;;;;;;8.90;5.72;;;;;;;;;;4996811;28;20037;-63
2023/09/09 08:33:23;;;;;;;10.85;6.13;;;;;;;;;;4996693;28;20049;-62
2023/09/09 08:35:49;;;;;;;11.70;5.88;;;;;;;;;;5009658;28;20027;-61
2023/09/09 08:38:14;;;;;;;9.18;5.47;;;;;;;;;;4996380;28;20037;-62
2023/09/09 08:41:05;;;;;;;9.55;5.22;;;;;;;;;;4996626;28;20026;-61
2023/09/09 08:43:33;;;;;;;8.18;5.93;;;;;;;;;;4996490;28;20027;-61
2023/09/09 08:46:11;;;;;;;7.50;5.30;;;;;;;;;;4994997;28;20446;-62
2023/09/09 08:48:37;;;;;;;7.28;5.88;;;;;;;;;;4996576;28;20026;-64
2023/09/09 08:51:04;;;;;;;12.25;5.63;;;;;;;;;;4996484;28;21139;-62
2023/09/09 08:53:31;;;;;;;8.43;5.47;;;;;;;;;;4996051;28;20092;-61
2023/09/09 08:55:58;;;;;;;10.20;5.55;;;;;;;;;;4996047;28;20054;-64
2023/09/09 08:58:24;;;;;;;10.30;5.13;;;;;;;;;;4996397;28;20068;-62
2023/09/09 09:00:51;;;;;;;11.23;5.32;;;;;;;;;;4996172;28;20041;-61
2023/09/09 09:03:18;;;;;;;9.07;4.70;;;;;;;;;;4996062;28;20026;-62
2023/09/09 09:05:44;;;;;;;7.43;5.03;;;;;;;;;;4996092;28;20034;-63
2023/09/09 09:08:09;;;;;;;9.35;5.07;;;;;;;;;;4995743;28;20155;-61
2023/09/09 09:10:40;;;;;;;9.50;4.88;;;;;;;;;;4996128;28;20038;-62
2023/09/09 09:13:06;;;;;;;12.55;5.03;;;;;;;;;;4996126;28;20037;-65
2023/09/09 09:15:32;;;;;;;6.75;4.68;;;;;;;;;;4995770;28;20034;-66
2023/09/09 09:18:01;;;;;;;6.03;4.47;;;;;;;;;;4995878;28;20057;-66
2023/09/09 09:20:31;;;;;;;8.40;5.50;;;;;;;;;;4995749;28;20384;-66
2023/09/09 09:22:58;;;;;;;8.80;5.07;;;;;;;;;;4995007;28;20137;-66
2023/09/09 09:25:24;;;;;;;7.13;5.20;;;;;;;;;;4995562;28;20037;-66
2023/09/09 09:27:50;;;;;;;8.48;5.10;;;;;;;;;;4995366;28;20027;-63
2023/09/09 09:30:23;;;;;;;7.30;5.18;;;;;;;;;;4995704;28;20468;-66
2023/09/09 09:32:51;;;;;;;11.13;5.30;;;;;;;;;;4995680;28;20054;-65
2023/09/09 09:35:25;;;;;;;11.38;5.35;;;;;;;;;;5007760;28;20387;-66
2023/09/09 09:38:02;;;;;;;10.75;5.13;;;;;;;;;;4974869;28;20488;-66
2023/09/09 09:40:30;;;;;;;6.65;5.10;;;;;;;;;;4976151;28;20050;-67
2023/09/09 09:42:56;;;;;;;10.65;5.13;;;;;;;;;;4976004;28;20098;-66
2023/09/09 09:45:26;;;;;;;8.07;4.85;;;;;;;;;;4975750;28;20125;-66
2023/09/09 09:47:52;;;;;;;10.02;5.32;;;;;;;;;;4975871;28;20031;-67
2023/09/09 09:50:30;;;;;;;5.80;5.03;;;;;;;;;;4975659;28;20078;-67
2023/09/09 09:53:04;;;;;;;14.73;5.30;;;;;;;;;;4975891;28;20551;-67
2023/09/09 09:55:32;;;;;;;8.35;5.55;;;;;;;;;;4975628;28;20035;-67
2023/09/09 09:58:00;;;;;;;6.50;4.72;;;;;;;;;;4975705;28;20047;-66
2023/09/09 10:00:27;;;;;;;7.68;5.05;;;;;;;;;;4975695;28;20050;-66
2023/09/09 10:02:54;;;;;;;8.93;5.10;;;;;;;;;;4992227;28;20049;-65
2023/09/09 10:05:23;;;;;;;11.38;5.30;;;;;;;;;;4994679;28;20030;-66
2023/09/09 10:08:16;;;;;;;8.38;5.13;;;;;;;;;;4995063;28;20456;-65
2023/09/09 10:10:57;;;;;;;7.13;4.78;;;;;;;;;;4994903;28;20034;-67
2023/09/09 10:13:35;;;;;;;7.05;4.78;;;;;;;;;;4994639;28;20018;-66
2023/09/09 10:16:01;;;;;;;8.38;4.50;;;;;;;;;;4994578;28;20387;-67
2023/09/09 10:18:28;;;;;;;11.07;4.85;;;;;;;;;;4994932;28;20027;-67
2023/09/09 10:20:55;;;;;;;10.68;5.22;;;;;;;;;;4994284;28;20018;-67
2023/09/09 10:23:22;;;;;;;7.60;5.03;;;;;;;;;;4994575;28;20026;-64
2023/09/09 10:25:50;;;;;;;10.18;5.15;;;;;;;;;;4994532;28;20056;-65
2023/09/09 10:28:19;;;;;;;6.80;4.80;;;;;;;;;;4994211;28;20036;-66
2023/09/09 10:30:47;;;;;;;9.38;5.05;;;;;;;;;;4994599;28;20022;-65
2023/09/09 10:33:13;;;;;;;7.85;4.65;;;;;;;;;;4993956;28;20427;-63
2023/09/09 10:35:41;;;;;;;5.80;4.60;;;;;;;;;;5006903;28;20041;-62
2023/09/09 10:38:07;;;;;;;8.40;4.43;;;;;;;;;;4994353;28;20125;-62
2023/09/09 10:40:34;;;;;;;9.63;4.78;;;;;;;;;;4994476;28;20109;-67
2023/09/09 10:43:00;;;;;;;7.47;5.10;;;;;;;;;;4994312;28;20120;-63
2023/09/09 10:45:34;;;;;;;5.85;3.88;;;;;;;;;;4993879;28;20468;-62
2023/09/09 10:48:06;;;;;;;5.68;4.38;;;;;;;;;;4994253;28;20479;-66
2023/09/09 10:50:50;;;;;;;7.00;4.28;;;;;;;;;;4994052;28;20498;-68
2023/09/09 10:53:21;;;;;;;8.95;4.63;;;;;;;;;;4994238;28;20031;-63
2023/09/09 10:55:48;;;;;;;8.70;4.05;;;;;;;;;;4994143;28;20038;-65
2023/09/09 10:58:21;;;;;;;7.47;4.70;;;;;;;;;;4993981;28;20114;-67
2023/09/09 11:00:48;;;;;;;5.90;4.20;;;;;;;;;;4993897;28;20105;-66
2023/09/09 11:03:27;;;;;;;15.65;4.75;;;;;;;;;;4992379;28;20035;-66
2023/09/09 11:06:05;;;;;;;8.57;4.43;;;;;;;;;;4993612;28;20042;-67
2023/09/09 11:08:47;;;;;;;7.45;4.30;;;;;;;;;;4993971;28;20026;-66
2023/09/09 11:11:33;;;;;;;5.50;3.95;;;;;;;;;;4994151;28;20034;-65
2023/09/09 11:14:07;;;;;;;5.50;4.47;;;;;;;;;;4993883;28;20050;-67
2023/09/09 11:16:35;;;;;;;6.90;4.18;;;;;;;;;;4992843;28;20034;-66
2023/09/09 11:19:16;;;;;;;7.32;4.65;;;;;;;;;;4992678;28;20129;-66
2023/09/09 11:21:47;;;;;;;6.03;4.15;;;;;;;;;;4993768;28;20081;-68
2023/09/09 11:24:14;;;;;;;8.80;4.43;;;;;;;;;;4993643;28;20088;-67
2023/09/09 11:26:42;;;;;;;8.23;4.05;;;;;;;;;;4993565;28;20026;-67
2023/09/09 11:29:08;;;;;;;6.80;4.00;;;;;;;;;;4993562;28;20101;-66
2023/09/09 11:31:34;;;;;;;7.00;4.18;;;;;;;;;;4993562;28;20034;-67
2023/09/09 11:34:00;;;;;;;8.00;3.65;;;;;;;;;;4995156;28;20037;-67
2023/09/09 11:36:26;;;;;;;5.43;3.80;;;;;;;;;;5004354;28;20085;-66
2023/09/09 11:38:55;;;;;;;5.55;3.80;;;;;;;;;;4993577;28;20026;-67
2023/09/09 11:41:24;;;;;;;8.70;3.65;;;;;;;;;;4993445;28;20030;-67
2023/09/09 11:44:08;;;;;;;7.35;3.53;;;;;;;;;;4993355;28;20034;-67
2023/09/09 11:46:43;;;;;;;5.47;3.72;;;;;;;;;;4992965;28;20105;-66
2023/09/09 11:49:10;;;;;;;5.15;3.50;;;;;;;;;;4993519;28;20049;-66
2023/09/09 11:51:36;;;;;;;6.25;3.70;;;;;;;;;;4993388;28;20448;-66
2023/09/09 11:54:03;;;;;;;12.38;4.57;;;;;;;;;;4993143;28;20030;-67
2023/09/09 11:56:33;;;;;;;5.60;4.07;;;;;;;;;;4992991;28;20046;-66
2023/09/09 11:58:59;;;;;;;7.53;4.00;;;;;;;;;;4993097;28;20031;-65
2023/09/09 12:01:24;;;;;;;7.55;4.38;;;;;;;;;;4992894;28;20066;-65
2023/09/09 12:03:50;;;;;;;6.47;4.05;;;;;;;;;;4992718;28;20034;-62
2023/09/09 12:06:21;;;;;;;9.43;4.15;;;;;;;;;;4992841;28;20037;-66
2023/09/09 12:08:47;;;;;;;6.07;4.15;;;;;;;;;;4992914;28;20031;-66
2023/09/09 12:11:17;;;;;;;12.60;4.25;;;;;;;;;;4993049;28;20037;-65
2023/09/09 12:13:44;;;;;;;6.68;3.97;;;;;;;;;;4992792;28;20415;-67
2023/09/09 12:16:10;;;;;;;6.82;4.00;;;;;;;;;;4992726;28;20030;-63
2023/09/09 12:18:36;;;;;;;5.32;3.90;;;;;;;;;;4993052;28;20072;-66
2023/09/09 12:21:08;;;;;;;4.65;3.65;;;;;;;;;;4992865;28;20030;-66
2023/09/09 12:23:40;;;;;;;6.97;3.83;;;;;;;;;;4992893;28;20448;-64
2023/09/09 12:26:16;;;;;;;7.00;4.28;;;;;;;;;;4991718;28;20035;-66
2023/09/09 12:29:03;;;;;;;5.15;3.88;;;;;;;;;;4992791;28;20029;-66
2023/09/09 12:31:29;;;;;;;6.00;3.95;;;;;;;;;;4992836;28;20030;-66
2023/09/09 12:33:55;;;;;;;6.90;4.25;;;;;;;;;;4993995;28;20037;-63
2023/09/09 12:36:21;;;;;;;6.05;4.30;;;;;;;;;;5004587;28;20026;-65
2023/09/09 12:38:49;;;;;;;8.05;3.88;;;;;;;;;;4992810;28;20030;-63
2023/09/09 12:41:19;;;;;;;5.95;4.18;;;;;;;;;;4992901;28;20109;-66
2023/09/09 12:43:46;;;;;;;5.88;4.30;;;;;;;;;;4992732;28;20023;-65
2023/09/09 12:46:15;;;;;;;7.15;4.03;;;;;;;;;;4992350;28;20033;-62
2023/09/09 12:48:56;;;;;;;;;;;;;;;;;;4993183;28;20383;-66
2023/09/09 12:51:24;;;;;;;7.15;4.63;;;;;;;;;;4991526;28;19975;-62
2023/09/09 12:53:51;;;;;;;5.80;3.90;;;;;;;;;;4992871;28;20030;-66
2023/09/09 12:56:17;;;;;;;6.68;3.97;;;;;;;;;;4992617;28;20050;-67
2023/09/09 12:58:42;;;;;;;7.20;4.43;;;;;;;;;;4996353;28;20517;-68
2023/09/09 13:01:08;;;;;;;7.55;4.05;;;;;;;;;;4996676;28;20025;-67
2023/09/09 13:03:34;;;;;;;6.75;4.05;;;;;;;;;;4996300;28;20034;-64
2023/09/09 13:06:00;;;;;;;10.48;3.80;;;;;;;;;;4994968;28;20041;-68
2023/09/09 13:08:25;;;;;;;4.75;3.97;;;;;;;;;;4995034;28;20027;-66
2023/09/09 13:10:51;;;;;;;7.40;3.88;;;;;;;;;;4996213;28;20049;-63
2023/09/09 13:13:16;;;;;;;6.03;3.70;;;;;;;;;;4996068;28;20033;-66
2023/09/09 13:15:43;;;;;;;10.65;4.30;;;;;;;;;;4995951;28;20396;-68
2023/09/09 13:18:09;;;;;;;7.90;4.03;;;;;;;;;;4996116;28;20030;-67
2023/09/09 13:20:34;;;;;;;7.32;3.90;;;;;;;;;;4995897;28;20062;-66
2023/09/09 13:23:00;;;;;;;7.07;4.18;;;;;;;;;;4995894;28;20034;-68
2023/09/09 13:25:25;;;;;;;6.07;4.13;;;;;;;;;;4995509;28;20033;-68
2023/09/09 13:27:52;;;;;;;9.30;4.85;;;;;;;;;;4995696;28;20034;-68
2023/09/09 13:30:18;;;;;;;5.72;3.90;;;;;;;;;;4995527;28;20088;-68
2023/09/09 13:32:43;;;;;;;8.15;4.05;;;;;;;;;;4995970;28;20113;-68
2023/09/09 13:35:09;;;;;;;6.57;4.40;;;;;;;;;;5006713;28;20033;-67
2023/09/09 13:37:34;;;;;;;5.63;4.10;;;;;;;;;;4997512;28;20104;-68
2023/09/09 13:40:00;;;;;;;6.00;3.55;;;;;;;;;;4995674;28;20041;-67
2023/09/09 13:42:25;;;;;;;6.15;3.90;;;;;;;;;;4995193;28;20030;-68
2023/09/09 13:44:51;;;;;;;8.30;4.15;;;;;;;;;;4995525;28;20068;-70
2023/09/09 13:47:16;;;;;;;8.48;4.00;;;;;;;;;;4995574;28;20022;-67
2023/09/09 13:49:42;;;;;;;8.02;3.63;;;;;;;;;;4995306;28;20073;-68
2023/09/09 13:52:08;;;;;;;4.95;3.90;;;;;;;;;;4995384;28;20026;-67
2023/09/09 13:54:34;;;;;;;13.55;4.28;;;;;;;;;;4995323;28;20026;-68
2023/09/09 13:56:59;;;;;;;6.50;3.97;;;;;;;;;;4994845;28;20246;-68
2023/09/09 13:59:25;;;;;;;5.35;3.78;;;;;;;;;;4995213;28;20033;-67
2023/09/09 14:01:52;;;;;;;7.75;3.72;;;;;;;;;;4994210;28;20077;-68
2023/09/09 14:04:18;;;;;;;5.25;3.83;;;;;;;;;;4994782;28;20026;-68
2023/09/09 14:06:44;;;;;;;7.85;3.95;;;;;;;;;;4994846;28;20072;-69
2023/09/09 14:09:11;;;;;;;6.20;3.97;;;;;;;;;;4994032;28;20476;-68
2023/09/09 14:11:36;;;;;;;8.80;4.05;;;;;;;;;;4994826;28;20488;-70
2023/09/09 14:14:02;;;;;;;10.63;4.10;;;;;;;;;;4994823;28;20029;-68
2023/09/09 14:16:27;;;;;;;5.65;4.20;;;;;;;;;;4994775;28;20022;-66
2023/09/09 14:18:53;;;;;;;6.85;3.92;;;;;;;;;;4993490;28;20037;-66
2023/09/09 14:21:19;;;;;;;7.30;4.38;;;;;;;;;;4994592;28;20113;-67
2023/09/09 14:23:45;;;;;;;7.35;3.95;;;;;;;;;;4994703;28;20380;-68
2023/09/09 14:26:11;;;;;;;7.28;4.40;;;;;;;;;;4994328;28;20035;-66
2023/09/09 14:28:36;;;;;;;5.18;3.78;;;;;;;;;;4994701;28;20041;-68
2023/09/09 14:31:02;;;;;;;7.68;3.90;;;;;;;;;;4994493;28;20053;-68